sensor_id;sensor_type;location;lat;lon;timestamp;temperature;humidity
66670;DHT22;53568;52.164;4.472;2022-08-19T00:01:54;22.02;71.80
66670;DHT22;53568;52.164;4.472;2022-08-19T00:04:25;22.02;71.68
66670;DHT22;53568;52.164;4.472;2022-08-19T00:06:51;22.01;71.65
66670;DHT22;53568;52.164;4.472;2022-08-19T00:09:18;22.04;71.67
66670;DHT22;53568;52.164;4.472;2022-08-19T00:11:45;22.06;71.59
66670;DHT22;53568;52.164;4.472;2022-08-19T00:14:14;22.06;71.44
66670;DHT22;53568;52.164;4.472;2022-08-19T00:16:43;22.08;71.33
66670;DHT22;53568;52.164;4.472;2022-08-19T00:19:09;22.08;71.39
66670;DHT22;53568;52.164;4.472;2022-08-19T00:21:36;22.04;71.34
66670;DHT22;53568;52.164;4.472;2022-08-19T00:24:06;22.05;71.33
66670;DHT22;53568;52.164;4.472;2022-08-19T00:26:32;22.04;71.37
66670;DHT22;53568;52.164;4.472;2022-08-19T00:28:58;22.06;71.25
66670;DHT22;53568;52.164;4.472;2022-08-19T00:31:24;22.06;70.98
66670;DHT22;53568;52.164;4.472;2022-08-19T00:33:50;22.02;71.07
66670;DHT22;53568;52.164;4.472;2022-08-19T00:36:16;22.04;71.10
66670;DHT22;53568;52.164;4.472;2022-08-19T00:38:41;22.00;71.18
66670;DHT22;53568;52.164;4.472;2022-08-19T00:41:11;21.91;71.44
66670;DHT22;53568;52.164;4.472;2022-08-19T00:43:37;21.88;71.58
66670;DHT22;53568;52.164;4.472;2022-08-19T00:46:04;21.81;71.52
66670;DHT22;53568;52.164;4.472;2022-08-19T00:48:31;21.81;71.71
66670;DHT22;53568;52.164;4.472;2022-08-19T00:50:58;21.81;71.76
66670;DHT22;53568;52.164;4.472;2022-08-19T00:53:27;21.77;71.85
66670;DHT22;53568;52.164;4.472;2022-08-19T00:55:58;21.77;71.79
66670;DHT22;53568;52.164;4.472;2022-08-19T00:58:28;21.77;71.93
66670;DHT22;53568;52.164;4.472;2022-08-19T01:00:55;21.77;71.86
66670;DHT22;53568;52.164;4.472;2022-08-19T01:03:21;21.80;71.71
66670;DHT22;53568;52.164;4.472;2022-08-19T01:05:49;21.78;71.55
66670;DHT22;53568;52.164;4.472;2022-08-19T01:08:18;21.80;71.27
66670;DHT22;53568;52.164;4.472;2022-08-19T01:10:52;21.81;71.07
66670;DHT22;53568;52.164;4.472;2022-08-19T01:13:21;21.84;70.77
66670;DHT22;53568;52.164;4.472;2022-08-19T01:15:58;21.84;70.68
66670;DHT22;53568;52.164;4.472;2022-08-19T01:18:26;21.81;70.60
66670;DHT22;53568;52.164;4.472;2022-08-19T01:20:58;21.71;70.88
66670;DHT22;53568;52.164;4.472;2022-08-19T01:23:24;21.68;71.10
66670;DHT22;53568;52.164;4.472;2022-08-19T01:26:12;21.61;71.06
66670;DHT22;53568;52.164;4.472;2022-08-19T01:28:40;21.57;71.31
66670;DHT22;53568;52.164;4.472;2022-08-19T01:31:10;21.55;71.57
66670;DHT22;53568;52.164;4.472;2022-08-19T01:33:37;21.60;71.49
66670;DHT22;53568;52.164;4.472;2022-08-19T01:36:10;21.53;71.83
66670;DHT22;53568;52.164;4.472;2022-08-19T01:38:40;21.55;71.81
66670;DHT22;53568;52.164;4.472;2022-08-19T01:41:06;21.51;71.85
66670;DHT22;53568;52.164;4.472;2022-08-19T01:43:32;21.44;72.25
66670;DHT22;53568;52.164;4.472;2022-08-19T01:45:58;21.40;72.44
66670;DHT22;53568;52.164;4.472;2022-08-19T01:48:24;21.43;72.22
66670;DHT22;53568;52.164;4.472;2022-08-19T01:50:49;21.40;72.17
66670;DHT22;53568;52.164;4.472;2022-08-19T01:53:15;21.39;72.40
66670;DHT22;53568;52.164;4.472;2022-08-19T01:55:43;21.36;72.52
66670;DHT22;53568;52.164;4.472;2022-08-19T01:58:15;21.39;72.38
66670;DHT22;53568;52.164;4.472;2022-08-19T02:00:44;21.36;72.34
66670;DHT22;53568;52.164;4.472;2022-08-19T02:03:10;21.39;72.30
66670;DHT22;53568;52.164;4.472;2022-08-19T02:05:37;21.39;72.42
66670;DHT22;53568;52.164;4.472;2022-08-19T02:08:03;21.40;72.54
66670;DHT22;53568;52.164;4.472;2022-08-19T02:10:29;21.43;72.46
66670;DHT22;53568;52.164;4.472;2022-08-19T02:12:54;21.44;72.40
66670;DHT22;53568;52.164;4.472;2022-08-19T02:15:21;21.46;72.26
66670;DHT22;53568;52.164;4.472;2022-08-19T02:17:48;21.40;72.46
66670;DHT22;53568;52.164;4.472;2022-08-19T02:20:14;21.37;72.86
66670;DHT22;53568;52.164;4.472;2022-08-19T02:22:42;21.40;72.74
66670;DHT22;53568;52.164;4.472;2022-08-19T02:25:10;21.39;72.72
66670;DHT22;53568;52.164;4.472;2022-08-19T02:27:36;21.39;72.81
66670;DHT22;53568;52.164;4.472;2022-08-19T02:30:05;21.39;73.05
66670;DHT22;53568;52.164;4.472;2022-08-19T02:32:30;21.36;73.20
66670;DHT22;53568;52.164;4.472;2022-08-19T02:34:56;21.33;73.39
66670;DHT22;53568;52.164;4.472;2022-08-19T02:37:21;21.33;73.51
66670;DHT22;53568;52.164;4.472;2022-08-19T02:40:06;21.36;73.61
66670;DHT22;53568;52.164;4.472;2022-08-19T02:42:32;21.37;73.67
66670;DHT22;53568;52.164;4.472;2022-08-19T02:44:58;21.39;73.74
66670;DHT22;53568;52.164;4.472;2022-08-19T02:47:23;21.43;73.70
66670;DHT22;53568;52.164;4.472;2022-08-19T02:49:49;21.40;73.77
66670;DHT22;53568;52.164;4.472;2022-08-19T02:52:17;21.40;73.99
66670;DHT22;53568;52.164;4.472;2022-08-19T02:54:43;21.43;73.83
66670;DHT22;53568;52.164;4.472;2022-08-19T02:57:09;21.43;73.95
66670;DHT22;53568;52.164;4.472;2022-08-19T02:59:35;21.41;74.03
66670;DHT22;53568;52.164;4.472;2022-08-19T03:02:00;21.49;73.95
66670;DHT22;53568;52.164;4.472;2022-08-19T03:04:26;21.47;74.01
66670;DHT22;53568;52.164;4.472;2022-08-19T03:06:51;21.49;74.12
66670;DHT22;53568;52.164;4.472;2022-08-19T03:09:19;21.47;74.04
66670;DHT22;53568;52.164;4.472;2022-08-19T03:11:45;21.51;74.03
66670;DHT22;53568;52.164;4.472;2022-08-19T03:14:12;21.44;74.35
66670;DHT22;53568;52.164;4.472;2022-08-19T03:16:47;21.46;74.40
66670;DHT22;53568;52.164;4.472;2022-08-19T03:19:16;21.49;74.41
66670;DHT22;53568;52.164;4.472;2022-08-19T03:21:43;21.49;74.37
66670;DHT22;53568;52.164;4.472;2022-08-19T03:24:11;21.50;74.33
66670;DHT22;53568;52.164;4.472;2022-08-19T03:26:42;21.50;74.43
66670;DHT22;53568;52.164;4.472;2022-08-19T03:29:09;21.44;74.58
66670;DHT22;53568;52.164;4.472;2022-08-19T03:31:38;21.40;74.89
66670;DHT22;53568;52.164;4.472;2022-08-19T03:34:04;21.28;75.24
66670;DHT22;53568;52.164;4.472;2022-08-19T03:36:30;21.33;75.22
66670;DHT22;53568;52.164;4.472;2022-08-19T03:38:58;21.23;75.76
66670;DHT22;53568;52.164;4.472;2022-08-19T03:41:26;21.16;75.99
66670;DHT22;53568;52.164;4.472;2022-08-19T03:43:58;21.17;75.98
66670;DHT22;53568;52.164;4.472;2022-08-19T03:46:28;21.20;75.85
66670;DHT22;53568;52.164;4.472;2022-08-19T03:48:56;21.11;76.19
66670;DHT22;53568;52.164;4.472;2022-08-19T03:51:28;21.06;76.36
66670;DHT22;53568;52.164;4.472;2022-08-19T03:53:55;21.06;76.40
66670;DHT22;53568;52.164;4.472;2022-08-19T03:56:22;21.10;76.42
66670;DHT22;53568;52.164;4.472;2022-08-19T03:58:50;21.14;76.23
66670;DHT22;53568;52.164;4.472;2022-08-19T04:01:18;21.13;76.11
66670;DHT22;53568;52.164;4.472;2022-08-19T04:03:45;21.06;76.15
66670;DHT22;53568;52.164;4.472;2022-08-19T04:06:23;21.00;76.34
66670;DHT22;53568;52.164;4.472;2022-08-19T04:08:51;20.99;76.37
66670;DHT22;53568;52.164;4.472;2022-08-19T04:11:22;20.92;76.71
66670;DHT22;53568;52.164;4.472;2022-08-19T04:13:49;20.93;76.85
66670;DHT22;53568;52.164;4.472;2022-08-19T04:16:18;20.89;76.99
66670;DHT22;53568;52.164;4.472;2022-08-19T04:18:46;20.89;77.13
66670;DHT22;53568;52.164;4.472;2022-08-19T04:21:22;20.85;77.14
66670;DHT22;53568;52.164;4.472;2022-08-19T04:23:48;20.85;77.30
66670;DHT22;53568;52.164;4.472;2022-08-19T04:26:21;20.90;77.22
66670;DHT22;53568;52.164;4.472;2022-08-19T04:28:48;20.89;77.01
66670;DHT22;53568;52.164;4.472;2022-08-19T04:31:16;20.80;77.27
66670;DHT22;53568;52.164;4.472;2022-08-19T04:33:43;20.79;77.43
66670;DHT22;53568;52.164;4.472;2022-08-19T04:36:20;20.80;77.50
66670;DHT22;53568;52.164;4.472;2022-08-19T04:38:47;20.79;77.65
66670;DHT22;53568;52.164;4.472;2022-08-19T04:41:14;20.80;77.82
66670;DHT22;53568;52.164;4.472;2022-08-19T04:43:58;20.71;78.06
66670;DHT22;53568;52.164;4.472;2022-08-19T04:46:23;20.73;78.14
66670;DHT22;53568;52.164;4.472;2022-08-19T04:48:49;20.79;78.16
66670;DHT22;53568;52.164;4.472;2022-08-19T04:51:14;20.89;77.77
66670;DHT22;53568;52.164;4.472;2022-08-19T04:53:41;20.86;77.61
66670;DHT22;53568;52.164;4.472;2022-08-19T04:56:10;20.76;78.30
66670;DHT22;53568;52.164;4.472;2022-08-19T04:58:38;20.77;78.46
66670;DHT22;53568;52.164;4.472;2022-08-19T05:01:04;20.82;78.52
66670;DHT22;53568;52.164;4.472;2022-08-19T05:03:30;20.89;78.46
66670;DHT22;53568;52.164;4.472;2022-08-19T05:06:05;20.90;78.15
66670;DHT22;53568;52.164;4.472;2022-08-19T05:08:34;20.90;78.27
66670;DHT22;53568;52.164;4.472;2022-08-19T05:11:08;20.90;78.45
66670;DHT22;53568;52.164;4.472;2022-08-19T05:13:34;20.89;78.71
66670;DHT22;53568;52.164;4.472;2022-08-19T05:16:03;20.77;79.12
66670;DHT22;53568;52.164;4.472;2022-08-19T05:18:29;20.82;79.09
66670;DHT22;53568;52.164;4.472;2022-08-19T05:21:16;20.87;78.96
66670;DHT22;53568;52.164;4.472;2022-08-19T05:24:01;20.96;78.91
66670;DHT22;53568;52.164;4.472;2022-08-19T05:26:27;21.04;78.84
66670;DHT22;53568;52.164;4.472;2022-08-19T05:28:55;21.06;78.76
66670;DHT22;53568;52.164;4.472;2022-08-19T05:31:21;21.06;78.55
66670;DHT22;53568;52.164;4.472;2022-08-19T05:33:47;21.03;78.77
66670;DHT22;53568;52.164;4.472;2022-08-19T05:36:13;21.10;78.67
66670;DHT22;53568;52.164;4.472;2022-08-19T05:38:42;21.08;78.75
66670;DHT22;53568;52.164;4.472;2022-08-19T05:41:12;21.14;78.91
66670;DHT22;53568;52.164;4.472;2022-08-19T05:43:38;21.17;78.73
66670;DHT22;53568;52.164;4.472;2022-08-19T05:46:05;21.13;78.75
66670;DHT22;53568;52.164;4.472;2022-08-19T05:48:33;21.13;78.76
66670;DHT22;53568;52.164;4.472;2022-08-19T05:51:04;21.16;78.78
66670;DHT22;53568;52.164;4.472;2022-08-19T05:53:32;21.26;78.41
66670;DHT22;53568;52.164;4.472;2022-08-19T05:56:07;21.23;78.69
66670;DHT22;53568;52.164;4.472;2022-08-19T05:58:34;21.33;78.39
66670;DHT22;53568;52.164;4.472;2022-08-19T06:01:00;21.34;78.33
66670;DHT22;53568;52.164;4.472;2022-08-19T06:03:32;21.33;78.20
66670;DHT22;53568;52.164;4.472;2022-08-19T06:05:58;21.28;78.48
66670;DHT22;53568;52.164;4.472;2022-08-19T06:08:27;21.24;78.77
66670;DHT22;53568;52.164;4.472;2022-08-19T06:10:53;21.19;79.27
66670;DHT22;53568;52.164;4.472;2022-08-19T06:13:19;21.26;79.17
66670;DHT22;53568;52.164;4.472;2022-08-19T06:15:46;21.30;78.92
66670;DHT22;53568;52.164;4.472;2022-08-19T06:18:13;21.34;79.03
66670;DHT22;53568;52.164;4.472;2022-08-19T06:20:40;21.41;78.80
66670;DHT22;53568;52.164;4.472;2022-08-19T06:23:05;21.47;78.66
66670;DHT22;53568;52.164;4.472;2022-08-19T06:25:31;21.55;78.49
66670;DHT22;53568;52.164;4.472;2022-08-19T06:27:57;21.65;78.41
66670;DHT22;53568;52.164;4.472;2022-08-19T06:30:23;21.70;78.23
66670;DHT22;53568;52.164;4.472;2022-08-19T06:32:48;21.74;78.19
66670;DHT22;53568;52.164;4.472;2022-08-19T06:35:14;21.81;78.07
66670;DHT22;53568;52.164;4.472;2022-08-19T06:37:40;21.80;78.29
66670;DHT22;53568;52.164;4.472;2022-08-19T06:40:07;21.85;78.25
66670;DHT22;53568;52.164;4.472;2022-08-19T06:42:34;22.00;78.01
66670;DHT22;53568;52.164;4.472;2022-08-19T06:45:00;22.09;77.68
66670;DHT22;53568;52.164;4.472;2022-08-19T06:47:29;22.16;77.42
66670;DHT22;53568;52.164;4.472;2022-08-19T06:49:59;22.19;77.36
66670;DHT22;53568;52.164;4.472;2022-08-19T06:52:34;22.19;77.51
66670;DHT22;53568;52.164;4.472;2022-08-19T06:55:01;22.34;77.28
66670;DHT22;53568;52.164;4.472;2022-08-19T06:57:27;22.52;76.79
66670;DHT22;53568;52.164;4.472;2022-08-19T06:59:58;22.60;76.77
66670;DHT22;53568;52.164;4.472;2022-08-19T07:02:25;22.69;76.39
66670;DHT22;53568;52.164;4.472;2022-08-19T07:04:52;22.72;76.53
66670;DHT22;53568;52.164;4.472;2022-08-19T07:07:23;22.85;76.54
66670;DHT22;53568;52.164;4.472;2022-08-19T07:09:50;22.89;76.08
66670;DHT22;53568;52.164;4.472;2022-08-19T07:12:18;22.96;75.94
66670;DHT22;53568;52.164;4.472;2022-08-19T07:14:43;23.02;75.74
66670;DHT22;53568;52.164;4.472;2022-08-19T07:17:11;22.98;75.84
66670;DHT22;53568;52.164;4.472;2022-08-19T07:19:39;23.02;75.65
66670;DHT22;53568;52.164;4.472;2022-08-19T07:22:07;23.04;75.58
66670;DHT22;53568;52.164;4.472;2022-08-19T07:24:37;23.07;75.50
66670;DHT22;53568;52.164;4.472;2022-08-19T07:27:04;23.09;75.51
66670;DHT22;53568;52.164;4.472;2022-08-19T07:29:33;23.10;75.47
66670;DHT22;53568;52.164;4.472;2022-08-19T07:32:00;23.17;74.99
66670;DHT22;53568;52.164;4.472;2022-08-19T07:34:28;23.14;75.14
66670;DHT22;53568;52.164;4.472;2022-08-19T07:36:55;23.14;75.17
66670;DHT22;53568;52.164;4.472;2022-08-19T07:39:25;23.23;74.96
66670;DHT22;53568;52.164;4.472;2022-08-19T07:41:51;23.17;75.02
66670;DHT22;53568;52.164;4.472;2022-08-19T07:44:17;23.03;75.35
66670;DHT22;53568;52.164;4.472;2022-08-19T07:46:51;22.98;74.50
66670;DHT22;53568;52.164;4.472;2022-08-19T07:49:17;23.02;74.40
66670;DHT22;53568;52.164;4.472;2022-08-19T07:51:57;23.06;74.48
66670;DHT22;53568;52.164;4.472;2022-08-19T07:54:25;23.13;74.31
66670;DHT22;53568;52.164;4.472;2022-08-19T07:56:52;23.12;74.15
66670;DHT22;53568;52.164;4.472;2022-08-19T07:59:19;23.14;73.63
66670;DHT22;53568;52.164;4.472;2022-08-19T08:01:46;23.16;73.63
66670;DHT22;53568;52.164;4.472;2022-08-19T08:04:13;23.23;73.55
66670;DHT22;53568;52.164;4.472;2022-08-19T08:06:58;23.39;73.24
66670;DHT22;53568;52.164;4.472;2022-08-19T08:09:48;23.53;72.61
66670;DHT22;53568;52.164;4.472;2022-08-19T08:12:18;23.66;71.82
66670;DHT22;53568;52.164;4.472;2022-08-19T08:14:58;23.71;71.59
66670;DHT22;53568;52.164;4.472;2022-08-19T08:17:29;23.57;71.45
66670;DHT22;53568;52.164;4.472;2022-08-19T08:19:55;23.66;70.84
66670;DHT22;53568;52.164;4.472;2022-08-19T08:22:32;23.60;70.88
66670;DHT22;53568;52.164;4.472;2022-08-19T08:25:20;23.64;70.77
66670;DHT22;53568;52.164;4.472;2022-08-19T08:27:46;23.80;70.06
66670;DHT22;53568;52.164;4.472;2022-08-19T08:30:17;23.80;70.69
66670;DHT22;53568;52.164;4.472;2022-08-19T08:32:43;23.91;70.74
66670;DHT22;53568;52.164;4.472;2022-08-19T08:35:13;24.02;70.40
66670;DHT22;53568;52.164;4.472;2022-08-19T08:37:39;24.02;70.27
66670;DHT22;53568;52.164;4.472;2022-08-19T08:40:18;24.15;69.92
66670;DHT22;53568;52.164;4.472;2022-08-19T08:42:56;24.21;69.65
66670;DHT22;53568;52.164;4.472;2022-08-19T08:45:28;24.34;69.91
66670;DHT22;53568;52.164;4.472;2022-08-19T08:48:03;24.41;69.80
66670;DHT22;53568;52.164;4.472;2022-08-19T08:50:55;24.49;69.52
66670;DHT22;53568;52.164;4.472;2022-08-19T08:53:26;24.61;69.26
66670;DHT22;53568;52.164;4.472;2022-08-19T08:56:04;24.64;67.98
66670;DHT22;53568;52.164;4.472;2022-08-19T08:58:58;24.36;68.28
66670;DHT22;53568;52.164;4.472;2022-08-19T09:01:27;24.18;69.20
66670;DHT22;53568;52.164;4.472;2022-08-19T09:03:58;23.97;69.97
66670;DHT22;53568;52.164;4.472;2022-08-19T09:09:32;23.81;70.81
66670;DHT22;53568;52.164;4.472;2022-08-19T09:12:17;23.68;71.34
66670;DHT22;53568;52.164;4.472;2022-08-19T09:17:15;23.73;71.79
66670;DHT22;53568;52.164;4.472;2022-08-19T09:19:59;23.84;71.77
66670;DHT22;53568;52.164;4.472;2022-08-19T09:22:29;24.08;71.39
66670;DHT22;53568;52.164;4.472;2022-08-19T09:24:55;24.21;70.75
66670;DHT22;53568;52.164;4.472;2022-08-19T09:27:22;24.36;70.14
66670;DHT22;53568;52.164;4.472;2022-08-19T09:29:50;24.38;69.31
66670;DHT22;53568;52.164;4.472;2022-08-19T09:32:16;24.42;68.46
66670;DHT22;53568;52.164;4.472;2022-08-19T09:34:44;24.41;68.33
66670;DHT22;53568;52.164;4.472;2022-08-19T09:37:09;24.31;68.70
66670;DHT22;53568;52.164;4.472;2022-08-19T09:39:35;24.25;68.88
66670;DHT22;53568;52.164;4.472;2022-08-19T09:42:01;24.25;68.96
66670;DHT22;53568;52.164;4.472;2022-08-19T09:44:29;24.26;69.10
66670;DHT22;53568;52.164;4.472;2022-08-19T09:46:54;24.41;68.97
66670;DHT22;53568;52.164;4.472;2022-08-19T09:49:21;24.49;68.56
66670;DHT22;53568;52.164;4.472;2022-08-19T09:51:51;24.42;69.19
66670;DHT22;53568;52.164;4.472;2022-08-19T09:54:20;24.24;69.66
66670;DHT22;53568;52.164;4.472;2022-08-19T09:56:46;24.22;69.29
66670;DHT22;53568;52.164;4.472;2022-08-19T09:59:11;24.35;68.70
66670;DHT22;53568;52.164;4.472;2022-08-19T10:01:37;24.49;68.83
66670;DHT22;53568;52.164;4.472;2022-08-19T10:04:03;24.56;68.37
66670;DHT22;53568;52.164;4.472;2022-08-19T10:06:38;24.42;68.75
66670;DHT22;53568;52.164;4.472;2022-08-19T10:09:09;24.55;68.72
66670;DHT22;53568;52.164;4.472;2022-08-19T10:11:36;24.62;68.38
66670;DHT22;53568;52.164;4.472;2022-08-19T10:14:04;24.76;67.55
66670;DHT22;53568;52.164;4.472;2022-08-19T10:16:36;24.86;66.99
66670;DHT22;53568;52.164;4.472;2022-08-19T10:19:04;24.89;66.57
66670;DHT22;53568;52.164;4.472;2022-08-19T10:21:33;24.80;66.44
66670;DHT22;53568;52.164;4.472;2022-08-19T10:24:01;24.56;67.32
66670;DHT22;53568;52.164;4.472;2022-08-19T10:26:40;24.52;67.23
66670;DHT22;53568;52.164;4.472;2022-08-19T10:29:10;24.52;67.51
66670;DHT22;53568;52.164;4.472;2022-08-19T10:31:37;24.58;67.68
66670;DHT22;53568;52.164;4.472;2022-08-19T10:34:03;24.64;67.55
66670;DHT22;53568;52.164;4.472;2022-08-19T10:36:32;24.65;66.59
66670;DHT22;53568;52.164;4.472;2022-08-19T10:39:05;24.65;66.69
66670;DHT22;53568;52.164;4.472;2022-08-19T10:41:36;24.47;68.04
66670;DHT22;53568;52.164;4.472;2022-08-19T10:44:06;24.41;68.15
66670;DHT22;53568;52.164;4.472;2022-08-19T10:46:35;24.35;68.30
66670;DHT22;53568;52.164;4.472;2022-08-19T10:49:03;24.38;68.50
66670;DHT22;53568;52.164;4.472;2022-08-19T10:51:31;24.39;68.76
66670;DHT22;53568;52.164;4.472;2022-08-19T10:54:15;24.44;69.09
66670;DHT22;53568;52.164;4.472;2022-08-19T10:56:41;24.48;68.94
66670;DHT22;53568;52.164;4.472;2022-08-19T10:59:22;24.51;69.13
66670;DHT22;53568;52.164;4.472;2022-08-19T11:01:51;24.52;68.88
66670;DHT22;53568;52.164;4.472;2022-08-19T11:04:18;24.51;69.26
66670;DHT22;53568;52.164;4.472;2022-08-19T11:06:46;24.66;68.90
66670;DHT22;53568;52.164;4.472;2022-08-19T11:09:40;24.80;68.83
66670;DHT22;53568;52.164;4.472;2022-08-19T11:12:06;24.85;67.30
66670;DHT22;53568;52.164;4.472;2022-08-19T11:14:38;24.73;68.12
66670;DHT22;53568;52.164;4.472;2022-08-19T11:17:11;24.71;67.81
66670;DHT22;53568;52.164;4.472;2022-08-19T11:19:39;24.58;68.37
66670;DHT22;53568;52.164;4.472;2022-08-19T11:22:10;24.48;68.56
66670;DHT22;53568;52.164;4.472;2022-08-19T11:25:02;24.36;68.80
66670;DHT22;53568;52.164;4.472;2022-08-19T11:27:41;24.41;68.80
66670;DHT22;53568;52.164;4.472;2022-08-19T11:30:12;24.55;67.92
66670;DHT22;53568;52.164;4.472;2022-08-19T11:32:46;24.72;67.30
66670;DHT22;53568;52.164;4.472;2022-08-19T11:35:23;24.68;68.18
66670;DHT22;53568;52.164;4.472;2022-08-19T11:38:01;24.52;67.79
66670;DHT22;53568;52.164;4.472;2022-08-19T11:40:33;24.65;67.71
66670;DHT22;53568;52.164;4.472;2022-08-19T11:43:09;24.56;67.70
66670;DHT22;53568;52.164;4.472;2022-08-19T11:45:40;24.58;67.99
66670;DHT22;53568;52.164;4.472;2022-08-19T11:48:08;24.58;68.41
66670;DHT22;53568;52.164;4.472;2022-08-19T11:50:36;24.55;68.25
66670;DHT22;53568;52.164;4.472;2022-08-19T11:53:07;24.72;67.82
66670;DHT22;53568;52.164;4.472;2022-08-19T11:55:37;24.86;67.63
66670;DHT22;53568;52.164;4.472;2022-08-19T11:58:04;25.03;67.27
66670;DHT22;53568;52.164;4.472;2022-08-19T12:00:33;25.18;66.53
66670;DHT22;53568;52.164;4.472;2022-08-19T12:03:01;25.23;66.52
66670;DHT22;53568;52.164;4.472;2022-08-19T12:05:27;25.13;65.61
66670;DHT22;53568;52.164;4.472;2022-08-19T12:07:52;25.19;64.92
66670;DHT22;53568;52.164;4.472;2022-08-19T12:10:20;25.09;65.79
66670;DHT22;53568;52.164;4.472;2022-08-19T12:12:46;25.09;66.72
66670;DHT22;53568;52.164;4.472;2022-08-19T12:15:15;25.09;67.31
66670;DHT22;53568;52.164;4.472;2022-08-19T12:17:44;25.03;67.59
66670;DHT22;53568;52.164;4.472;2022-08-19T12:20:13;24.96;67.23
66670;DHT22;53568;52.164;4.472;2022-08-19T12:22:41;25.06;66.38
66670;DHT22;53568;52.164;4.472;2022-08-19T12:25:09;25.08;66.47
66670;DHT22;53568;52.164;4.472;2022-08-19T12:27:40;25.26;66.17
66670;DHT22;53568;52.164;4.472;2022-08-19T12:30:09;25.41;66.24
66670;DHT22;53568;52.164;4.472;2022-08-19T12:32:36;25.57;65.04
66670;DHT22;53568;52.164;4.472;2022-08-19T12:35:06;25.26;66.06
66670;DHT22;53568;52.164;4.472;2022-08-19T12:37:40;25.31;65.80
66670;DHT22;53568;52.164;4.472;2022-08-19T12:40:10;25.43;65.68
66670;DHT22;53568;52.164;4.472;2022-08-19T12:42:38;25.60;64.54
66670;DHT22;53568;52.164;4.472;2022-08-19T12:45:13;25.69;63.51
66670;DHT22;53568;52.164;4.472;2022-08-19T12:47:49;25.70;63.86
66670;DHT22;53568;52.164;4.472;2022-08-19T12:50:14;25.71;64.07
66670;DHT22;53568;52.164;4.472;2022-08-19T12:52:46;25.74;63.59
66670;DHT22;53568;52.164;4.472;2022-08-19T12:55:15;25.71;63.89
66670;DHT22;53568;52.164;4.472;2022-08-19T12:57:44;25.64;64.00
66670;DHT22;53568;52.164;4.472;2022-08-19T13:00:19;25.43;65.19
66670;DHT22;53568;52.164;4.472;2022-08-19T13:02:56;25.43;65.21
66670;DHT22;53568;52.164;4.472;2022-08-19T13:05:27;25.47;65.02
66670;DHT22;53568;52.164;4.472;2022-08-19T13:07:57;25.53;64.78
66670;DHT22;53568;52.164;4.472;2022-08-19T13:10:28;25.59;65.02
66670;DHT22;53568;52.164;4.472;2022-08-19T13:12:57;25.70;63.68
66670;DHT22;53568;52.164;4.472;2022-08-19T13:15:24;25.74;63.39
66670;DHT22;53568;52.164;4.472;2022-08-19T13:17:52;25.46;65.29
66670;DHT22;53568;52.164;4.472;2022-08-19T13:20:22;25.37;65.38
66670;DHT22;53568;52.164;4.472;2022-08-19T13:22:48;25.15;66.21
66670;DHT22;53568;52.164;4.472;2022-08-19T13:25:16;24.99;67.00
66670;DHT22;53568;52.164;4.472;2022-08-19T13:27:43;25.18;66.40
66670;DHT22;53568;52.164;4.472;2022-08-19T13:30:12;25.13;66.94
66670;DHT22;53568;52.164;4.472;2022-08-19T13:33:06;25.33;66.59
66670;DHT22;53568;52.164;4.472;2022-08-19T13:38:10;25.36;66.02
66670;DHT22;53568;52.164;4.472;2022-08-19T13:40:39;25.36;64.82
66670;DHT22;53568;52.164;4.472;2022-08-19T13:43:05;25.61;63.59
66670;DHT22;53568;52.164;4.472;2022-08-19T13:45:33;25.77;63.84
66670;DHT22;53568;52.164;4.472;2022-08-19T13:48:00;25.74;64.07
66670;DHT22;53568;52.164;4.472;2022-08-19T13:50:38;25.90;64.02
66670;DHT22;53568;52.164;4.472;2022-08-19T13:53:05;25.80;64.83
66670;DHT22;53568;52.164;4.472;2022-08-19T13:55:31;25.85;63.36
66670;DHT22;53568;52.164;4.472;2022-08-19T13:58:06;25.80;63.39
66670;DHT22;53568;52.164;4.472;2022-08-19T14:00:35;25.84;62.83
66670;DHT22;53568;52.164;4.472;2022-08-19T14:03:02;25.77;63.25
66670;DHT22;53568;52.164;4.472;2022-08-19T14:05:29;25.87;63.52
66670;DHT22;53568;52.164;4.472;2022-08-19T14:07:56;25.95;63.14
66670;DHT22;53568;52.164;4.472;2022-08-19T14:10:23;26.04;62.93
66670;DHT22;53568;52.164;4.472;2022-08-19T14:12:52;26.14;62.05
66670;DHT22;53568;52.164;4.472;2022-08-19T14:15:18;26.31;62.24
66670;DHT22;53568;52.164;4.472;2022-08-19T14:17:45;26.47;62.41
66670;DHT22;53568;52.164;4.472;2022-08-19T14:20:25;26.47;61.95
66670;DHT22;53568;52.164;4.472;2022-08-19T14:22:54;26.25;61.95
66670;DHT22;53568;52.164;4.472;2022-08-19T14:25:29;26.01;62.62
66670;DHT22;53568;52.164;4.472;2022-08-19T14:27:58;25.77;63.88
66670;DHT22;53568;52.164;4.472;2022-08-19T14:30:36;25.60;65.10
66670;DHT22;53568;52.164;4.472;2022-08-19T14:33:04;25.49;65.02
66670;DHT22;53568;52.164;4.472;2022-08-19T14:35:40;25.15;65.79
66670;DHT22;53568;52.164;4.472;2022-08-19T14:38:17;24.92;67.18
66670;DHT22;53568;52.164;4.472;2022-08-19T14:40:43;24.73;66.86
66670;DHT22;53568;52.164;4.472;2022-08-19T14:43:08;24.65;67.79
66670;DHT22;53568;52.164;4.472;2022-08-19T14:45:43;24.73;68.26
66670;DHT22;53568;52.164;4.472;2022-08-19T14:48:11;24.92;68.60
66670;DHT22;53568;52.164;4.472;2022-08-19T14:50:38;24.96;67.16
66670;DHT22;53568;52.164;4.472;2022-08-19T14:53:08;24.80;67.37
66670;DHT22;53568;52.164;4.472;2022-08-19T14:55:42;24.64;68.11
66670;DHT22;53568;52.164;4.472;2022-08-19T14:58:08;24.73;68.08
66670;DHT22;53568;52.164;4.472;2022-08-19T15:00:34;24.66;68.26
66670;DHT22;53568;52.164;4.472;2022-08-19T15:03:02;24.59;68.30
66670;DHT22;53568;52.164;4.472;2022-08-19T15:05:32;24.55;68.00
66670;DHT22;53568;52.164;4.472;2022-08-19T15:08:03;24.69;67.92
66670;DHT22;53568;52.164;4.472;2022-08-19T15:10:32;24.75;67.71
66670;DHT22;53568;52.164;4.472;2022-08-19T15:13:08;24.69;67.56
66670;DHT22;53568;52.164;4.472;2022-08-19T15:15:35;24.45;68.59
66670;DHT22;53568;52.164;4.472;2022-08-19T15:18:03;24.48;68.84
66670;DHT22;53568;52.164;4.472;2022-08-19T15:20:33;24.26;69.96
66670;DHT22;53568;52.164;4.472;2022-08-19T15:22:59;24.11;71.19
66670;DHT22;53568;52.164;4.472;2022-08-19T15:25:28;23.96;72.34
66670;DHT22;53568;52.164;4.472;2022-08-19T15:27:53;23.93;72.94
66670;DHT22;53568;52.164;4.472;2022-08-19T15:30:25;23.90;72.35
66670;DHT22;53568;52.164;4.472;2022-08-19T15:32:55;23.80;72.86
66670;DHT22;53568;52.164;4.472;2022-08-19T15:35:30;23.84;72.84
66670;DHT22;53568;52.164;4.472;2022-08-19T15:38:00;23.81;72.64
66670;DHT22;53568;52.164;4.472;2022-08-19T15:40:33;23.66;73.15
66670;DHT22;53568;52.164;4.472;2022-08-19T15:43:15;23.68;72.93
66670;DHT22;53568;52.164;4.472;2022-08-19T15:45:43;23.78;73.22
66670;DHT22;53568;52.164;4.472;2022-08-19T15:48:11;23.91;73.07
66670;DHT22;53568;52.164;4.472;2022-08-19T15:50:47;24.10;72.38
66670;DHT22;53568;52.164;4.472;2022-08-19T15:53:15;24.26;71.53